Free Trial

Alaunos Therapeutics (TCRT) Institutional Ownership

Alaunos Therapeutics logo
$2.61 -0.06 (-2.25%)
As of 11:53 AM Eastern
This is a fair market value price provided by Massive. Learn more.

Institutional Ownership Changes (13F Filings) for Alaunos Therapeutics (NASDAQ:TCRT)

Current
Institutional Ownership
Percentage
27.72%
Number of
Institutional Buyers
(last 12 months)
2
Total
Institutional Inflows
(last 12 months)
$53.45K
Number of
Institutional Sellers
(last 12 months)
0
Get TCRT Insider Trade Alerts

Want to know when executives and insiders are buying or selling Alaunos Therapeutics stock? Sign up for InsiderTrades.com's daily newsletter to get the latest insider transactions delivered to your inbox daily.

SMS is currently available in Australia, Belgium, Canada, France, Germany, Ireland, Italy, New Zealand, the Netherlands, Singapore, South Africa, Spain, Switzerland, the United Kingdom, and the United States. By entering your phone number and clicking the sign-up button, you agree to receive periodic text messages from MarketBeat at the phone number you submitted, including texts that may be sent using an automatic telephone dialing system. Message and data rates may apply. Message frequency will vary. Messages will consist of stock alerts, news stories, and partner advertisements/offers. Consent is not a condition of the purchase of any goods or services. Text HELP for help/customer support. Unsubscribe at any time by replying "STOP" to any text message that you receive from MarketBeat or by visiting our mailing preferences page. Read our full terms of service and privacy policy.
Skip Chart & View Institutional Buying and Selling Data

TCRT Institutional Buying and Selling by Quarter

Alaunos Therapeutics Major Shareholders & Ownership History

Reporting DateMajor Shareholder NameShares HeldMarket Value% of PortfolioQuarterly Change in SharesOwnership in CompanyDetails
2/12/2026HRT Financial LP12,602$40K0.0%N/A0.543%
2/9/2026Geode Capital Management LLC19,736$64K0.0%+25.0%0.851%
11/15/2024MSD Partners L.P.101,010$325K0.2%-90.0%6.313%
5/20/2024Virtu Financial LLC15,440$28K0.0%N/A0.096%
5/2/2024Magnolia Capital Advisors LLC24,695$45K0.0%-93.8%0.154%
4/30/2024Fortis Group Advisors LLC13,999$25K0.0%N/A0.087%
2/20/2024MSD Partners L.P.15,151,516$1.07M0.1%-33.3%94.402%
2/9/2024Commerce Bank437,000$31K0.0%-4.8%2.723%
2/2/2024Magnolia Capital Advisors LLC401,507$28K0.0%-7.3%0.167%
11/4/2023Magnolia Capital Advisors LLC432,969$56K0.1%N/A0.180%
7/20/2023Allred Capital Management LLC253,000$129K0.1%+24.6%0.105%
5/12/2023CIBC Private Wealth Group LLC50,400$32K0.0%+65.8%0.021%
4/21/2023Chiron Capital Management LLC81,830$52K0.0%-22.7%0.034%
2/15/2023Allred Capital Management LLC193,000$125K0.1%+22.2%0.089%
2/14/2023Discovery Capital Management LLC CT16,185,998$10.51M1.5%+10.5%7.487%
2/13/2023GSA Capital Partners LLP957,348$621K0.1%+57.4%0.443%
1/30/2023Welch Group LLC43,000$28K0.0%-26.7%0.020%
1/9/2023Addison Capital Co15,870$2.32M1.5%N/A0.007%
11/15/2022Laurion Capital Management LP4,220,500$7.26M0.0%-1.6%1.952%
11/15/2022Magnolia Capital Advisors LLC418,569$720K0.6%+25.1%0.194%
11/15/2022Boxer Capital LLC1,500,000$2.58M0.1%N/A0.694%
11/15/2022Caxton Associates LP311,974$537K0.1%+209.8%0.144%
11/14/2022Zacks Investment Management44,550$77K0.0%N/A0.021%
11/14/2022Tudor Investment Corp Et Al39,374$68K0.0%-88.1%0.018%
11/14/2022Cubist Systematic Strategies LLC349,867$602K0.0%+4,589.3%0.162%
11/14/2022Ergoteles LLC485,434$835K0.0%-48.2%0.225%
11/14/2022E Fund Management Co. Ltd.15,167$26K0.0%N/A0.007%
11/7/2022Virtu Financial LLC74,592$128K0.0%N/A0.035%
11/3/2022Mutual Advisors LLC22,095$38K0.0%-40.4%0.010%
11/3/2022Barclays PLC136,136$234K0.0%N/A0.063%
10/31/2022Concorde Asset Management LLC35,500$61K0.1%N/A0.016%
10/31/2022Green Square Capital Advisors LLC1,080,000$1.86M0.3%N/A0.500%
10/26/2022Belvedere Trading LLC66,493$78K0.0%N/A0.031%
10/24/2022ACT Wealth Management LLC38,476$66K0.0%N/A0.018%
10/17/2022SevenBridge Financial Group LLC20,000$34K0.0%N/A0.009%
10/14/2022Private Advisor Group LLC119,374$206K0.0%N/A0.055%
10/13/2022Chiron Capital Management LLC116,860$201K0.1%N/A0.054%
10/13/2022Welch Group LLC58,700$101K0.0%N/A0.027%
10/11/2022Sugarloaf Wealth Management LLC79,050$136K0.0%N/A0.037%
10/4/2022AdvisorNet Financial Inc42,329$73K0.0%N/A0.020%
8/16/2022Discovery Capital Management LLC CT14,125,079$17.52M2.3%N/A6.541%
8/15/2022Laurion Capital Management LP4,289,193$5.32M0.1%N/A1.986%
8/15/2022Kettle Hill Capital Management LLC344,400$427K0.1%N/A0.159%
8/12/2022Commerce Bank459,000$569K0.0%N/A0.213%
8/10/2022Synovus Financial Corp33,000$41K0.0%N/A0.015%
8/8/2022Nicolet Advisory Services LLC21,500$30K0.0%N/A0.010%
8/8/2022Oppenheimer & Co. Inc.45,500$56K0.0%N/A0.021%
8/8/2022Y Intercept Hong Kong Ltd25,079$31K0.0%N/A0.012%
8/5/2022Gamble Jones Investment Counsel61,000$76K0.0%N/A0.028%
8/5/2022Horizon Kinetics Asset Management LLC34,000$42K0.0%N/A0.016%
8/4/2022Steward Partners Investment Advisory LLC36,106$45K0.0%N/A0.017%
8/3/2022CIBC Private Wealth Group LLC41,490$51K0.0%N/A0.019%
8/3/2022Stephens Inc. AR25,162$31K0.0%N/A0.012%
8/3/2022Janney Montgomery Scott LLC82,412$101K0.0%N/A0.038%


TCRT Institutional Ownership - Frequently Asked Questions

During the previous two years, the following institutional investors and hedge funds held shares of Alaunos Therapeutics shares: MSD Partners L.P. ($325K), Geode Capital Management LLC ($64K), and HRT Financial LP ($40K), Virtu Financial LLC ($28K).Learn more on Alaunos Therapeutics' institutional investors.

27.72% of Alaunos Therapeutics' stock is owned by institutional investors. Learn more on TCRT's institutional investor holdings.

The following institutional investors have purchased Alaunos Therapeutics' stock in the last 24 months: Virtu Financial LLC ($15.44K), HRT Financial LP ($12.60K), and Geode Capital Management LLC ($3.95K).

Institutional investors have bought a total of 16,547 shares in the last 24 months. This purchase volume represents approximately $53.45K in transactions.



This page (NASDAQ:TCRT) was last updated on 5/8/2026 by MarketBeat.com Staff.
From Our Partners